sensor_id;sensor_type;location;lat;lon;timestamp;temperature;humidity
17284;DHT22;8760;52.248;20.952;2024-02-21T00:01:29;3.90;99.90
17284;DHT22;8760;52.248;20.952;2024-02-21T00:03:57;4.00;99.90
17284;DHT22;8760;52.248;20.952;2024-02-21T00:06:24;4.00;99.90
17284;DHT22;8760;52.248;20.952;2024-02-21T00:08:51;4.00;99.90
17284;DHT22;8760;52.248;20.952;2024-02-21T00:11:18;4.10;99.90
17284;DHT22;8760;52.248;20.952;2024-02-21T00:13:45;4.10;99.90
17284;DHT22;8760;52.248;20.952;2024-02-21T00:16:12;4.10;99.90
17284;DHT22;8760;52.248;20.952;2024-02-21T00:18:41;4.20;99.90
17284;DHT22;8760;52.248;20.952;2024-02-21T00:21:09;4.20;99.90
17284;DHT22;8760;52.248;20.952;2024-02-21T00:23:40;4.30;99.90
17284;DHT22;8760;52.248;20.952;2024-02-21T00:26:07;4.30;99.90
17284;DHT22;8760;52.248;20.952;2024-02-21T00:28:34;4.40;99.90
17284;DHT22;8760;52.248;20.952;2024-02-21T00:31:01;4.40;99.90
17284;DHT22;8760;52.248;20.952;2024-02-21T00:33:27;4.50;99.90
17284;DHT22;8760;52.248;20.952;2024-02-21T00:35:54;4.50;99.90
17284;DHT22;8760;52.248;20.952;2024-02-21T00:38:22;4.50;99.90
17284;DHT22;8760;52.248;20.952;2024-02-21T00:40:49;4.50;99.90
17284;DHT22;8760;52.248;20.952;2024-02-21T00:43:16;4.50;99.90
17284;DHT22;8760;52.248;20.952;2024-02-21T00:45:43;4.60;99.90
17284;DHT22;8760;52.248;20.952;2024-02-21T00:48:10;4.60;99.90
17284;DHT22;8760;52.248;20.952;2024-02-21T00:50:37;4.70;99.90
17284;DHT22;8760;52.248;20.952;2024-02-21T00:53:04;4.70;99.90
17284;DHT22;8760;52.248;20.952;2024-02-21T00:55:32;4.80;99.90
17284;DHT22;8760;52.248;20.952;2024-02-21T00:57:59;4.80;99.90
17284;DHT22;8760;52.248;20.952;2024-02-21T01:00:26;4.70;99.90
17284;DHT22;8760;52.248;20.952;2024-02-21T01:02:53;4.80;99.90
17284;DHT22;8760;52.248;20.952;2024-02-21T01:05:19;4.80;99.90
17284;DHT22;8760;52.248;20.952;2024-02-21T01:07:47;4.80;99.90
17284;DHT22;8760;52.248;20.952;2024-02-21T01:10:14;4.90;99.90
17284;DHT22;8760;52.248;20.952;2024-02-21T01:12:42;4.90;99.90
17284;DHT22;8760;52.248;20.952;2024-02-21T01:15:09;4.90;99.90
17284;DHT22;8760;52.248;20.952;2024-02-21T01:17:37;4.90;99.90
17284;DHT22;8760;52.248;20.952;2024-02-21T01:20:07;4.90;99.90
17284;DHT22;8760;52.248;20.952;2024-02-21T01:22:34;4.80;99.90
17284;DHT22;8760;52.248;20.952;2024-02-21T01:25:00;4.80;99.90
17284;DHT22;8760;52.248;20.952;2024-02-21T01:27:27;4.80;99.90
17284;DHT22;8760;52.248;20.952;2024-02-21T01:29:56;4.80;99.90
17284;DHT22;8760;52.248;20.952;2024-02-21T01:32:22;4.90;99.90
17284;DHT22;8760;52.248;20.952;2024-02-21T01:34:50;4.90;99.90
17284;DHT22;8760;52.248;20.952;2024-02-21T01:37:17;4.90;99.90
17284;DHT22;8760;52.248;20.952;2024-02-21T01:39:44;4.90;99.90
17284;DHT22;8760;52.248;20.952;2024-02-21T01:42:10;4.90;99.90
17284;DHT22;8760;52.248;20.952;2024-02-21T01:44:37;4.90;99.90
17284;DHT22;8760;52.248;20.952;2024-02-21T01:47:06;4.90;99.90
17284;DHT22;8760;52.248;20.952;2024-02-21T01:49:33;4.80;99.90
17284;DHT22;8760;52.248;20.952;2024-02-21T01:52:01;4.80;99.90
17284;DHT22;8760;52.248;20.952;2024-02-21T01:54:29;4.80;99.90
17284;DHT22;8760;52.248;20.952;2024-02-21T01:56:56;4.70;99.90
17284;DHT22;8760;52.248;20.952;2024-02-21T01:59:23;4.70;99.90
17284;DHT22;8760;52.248;20.952;2024-02-21T02:01:51;4.70;99.90
17284;DHT22;8760;52.248;20.952;2024-02-21T02:04:20;4.80;99.90
17284;DHT22;8760;52.248;20.952;2024-02-21T02:06:47;4.80;99.90
17284;DHT22;8760;52.248;20.952;2024-02-21T02:09:15;4.90;99.90
17284;DHT22;8760;52.248;20.952;2024-02-21T02:11:43;4.90;99.90
17284;DHT22;8760;52.248;20.952;2024-02-21T02:14:10;4.90;99.90
17284;DHT22;8760;52.248;20.952;2024-02-21T02:16:36;4.90;99.90
17284;DHT22;8760;52.248;20.952;2024-02-21T02:19:03;4.90;99.90
17284;DHT22;8760;52.248;20.952;2024-02-21T02:21:38;4.80;99.90
17284;DHT22;8760;52.248;20.952;2024-02-21T02:24:07;4.90;99.90
17284;DHT22;8760;52.248;20.952;2024-02-21T02:26:34;4.90;99.90
17284;DHT22;8760;52.248;20.952;2024-02-21T02:29:01;4.90;99.90
17284;DHT22;8760;52.248;20.952;2024-02-21T02:31:28;4.90;99.90
17284;DHT22;8760;52.248;20.952;2024-02-21T02:33:54;5.00;99.90
17284;DHT22;8760;52.248;20.952;2024-02-21T02:36:21;5.10;99.90
17284;DHT22;8760;52.248;20.952;2024-02-21T02:38:48;5.10;99.90
17284;DHT22;8760;52.248;20.952;2024-02-21T02:41:16;5.00;99.90
17284;DHT22;8760;52.248;20.952;2024-02-21T02:43:43;5.00;99.90
17284;DHT22;8760;52.248;20.952;2024-02-21T02:46:10;4.90;99.90
17284;DHT22;8760;52.248;20.952;2024-02-21T02:48:37;4.80;99.90
17284;DHT22;8760;52.248;20.952;2024-02-21T02:51:04;4.90;99.90
17284;DHT22;8760;52.248;20.952;2024-02-21T02:53:31;4.90;99.90
17284;DHT22;8760;52.248;20.952;2024-02-21T02:55:58;4.80;99.90
17284;DHT22;8760;52.248;20.952;2024-02-21T02:58:25;4.80;99.90
17284;DHT22;8760;52.248;20.952;2024-02-21T03:00:52;4.90;99.90
17284;DHT22;8760;52.248;20.952;2024-02-21T03:03:19;4.90;99.90
17284;DHT22;8760;52.248;20.952;2024-02-21T03:05:46;4.80;99.90
17284;DHT22;8760;52.248;20.952;2024-02-21T03:08:13;4.80;99.90
17284;DHT22;8760;52.248;20.952;2024-02-21T03:10:40;4.80;99.90
17284;DHT22;8760;52.248;20.952;2024-02-21T03:13:07;4.80;99.90
17284;DHT22;8760;52.248;20.952;2024-02-21T03:15:36;4.80;99.90
17284;DHT22;8760;52.248;20.952;2024-02-21T03:18:03;4.80;99.90
17284;DHT22;8760;52.248;20.952;2024-02-21T03:20:30;4.80;99.90
17284;DHT22;8760;52.248;20.952;2024-02-21T03:22:57;4.80;99.90
17284;DHT22;8760;52.248;20.952;2024-02-21T03:25:24;4.70;99.90
17284;DHT22;8760;52.248;20.952;2024-02-21T03:27:51;4.70;99.90
17284;DHT22;8760;52.248;20.952;2024-02-21T03:30:18;4.70;99.90
17284;DHT22;8760;52.248;20.952;2024-02-21T03:32:47;4.60;99.90
17284;DHT22;8760;52.248;20.952;2024-02-21T03:35:14;4.50;99.90
17284;DHT22;8760;52.248;20.952;2024-02-21T03:37:44;4.50;99.90
17284;DHT22;8760;52.248;20.952;2024-02-21T03:40:12;4.50;99.90
17284;DHT22;8760;52.248;20.952;2024-02-21T03:42:39;4.50;99.90
17284;DHT22;8760;52.248;20.952;2024-02-21T03:45:06;4.50;99.90
17284;DHT22;8760;52.248;20.952;2024-02-21T03:47:33;4.60;99.90
17284;DHT22;8760;52.248;20.952;2024-02-21T03:50:02;4.60;99.90
17284;DHT22;8760;52.248;20.952;2024-02-21T03:52:29;4.60;99.90
17284;DHT22;8760;52.248;20.952;2024-02-21T03:54:56;4.60;99.90
17284;DHT22;8760;52.248;20.952;2024-02-21T03:57:23;4.60;99.90
17284;DHT22;8760;52.248;20.952;2024-02-21T03:59:50;4.70;99.90
17284;DHT22;8760;52.248;20.952;2024-02-21T04:02:18;4.70;99.90
17284;DHT22;8760;52.248;20.952;2024-02-21T04:04:45;4.70;99.90
17284;DHT22;8760;52.248;20.952;2024-02-21T04:07:18;4.80;99.90
17284;DHT22;8760;52.248;20.952;2024-02-21T04:09:44;4.80;99.90
17284;DHT22;8760;52.248;20.952;2024-02-21T04:12:11;4.90;99.90
17284;DHT22;8760;52.248;20.952;2024-02-21T04:14:38;4.90;99.90
17284;DHT22;8760;52.248;20.952;2024-02-21T04:17:05;4.90;99.90
17284;DHT22;8760;52.248;20.952;2024-02-21T04:19:32;5.00;99.90
17284;DHT22;8760;52.248;20.952;2024-02-21T04:22:00;4.90;99.90
17284;DHT22;8760;52.248;20.952;2024-02-21T04:24:28;5.00;99.90
17284;DHT22;8760;52.248;20.952;2024-02-21T04:26:55;5.10;99.90
17284;DHT22;8760;52.248;20.952;2024-02-21T04:29:22;5.10;99.90
17284;DHT22;8760;52.248;20.952;2024-02-21T04:31:49;5.10;99.90
17284;DHT22;8760;52.248;20.952;2024-02-21T04:34:15;5.20;99.90
17284;DHT22;8760;52.248;20.952;2024-02-21T04:36:42;5.30;99.90
17284;DHT22;8760;52.248;20.952;2024-02-21T04:39:09;5.30;99.90
17284;DHT22;8760;52.248;20.952;2024-02-21T04:41:38;5.30;99.90
17284;DHT22;8760;52.248;20.952;2024-02-21T04:44:05;5.20;99.90
17284;DHT22;8760;52.248;20.952;2024-02-21T04:46:32;5.30;99.90
17284;DHT22;8760;52.248;20.952;2024-02-21T04:48:58;5.30;99.90
17284;DHT22;8760;52.248;20.952;2024-02-21T04:51:25;5.30;99.90
17284;DHT22;8760;52.248;20.952;2024-02-21T04:53:52;5.30;99.90
17284;DHT22;8760;52.248;20.952;2024-02-21T04:56:19;5.40;99.90
17284;DHT22;8760;52.248;20.952;2024-02-21T04:58:47;5.40;99.90
17284;DHT22;8760;52.248;20.952;2024-02-21T05:01:14;5.40;99.90
17284;DHT22;8760;52.248;20.952;2024-02-21T05:03:41;5.40;99.90
17284;DHT22;8760;52.248;20.952;2024-02-21T05:06:08;5.40;99.90
17284;DHT22;8760;52.248;20.952;2024-02-21T05:08:35;5.50;99.90
17284;DHT22;8760;52.248;20.952;2024-02-21T05:11:02;5.50;99.90
17284;DHT22;8760;52.248;20.952;2024-02-21T05:13:29;5.50;99.90
17284;DHT22;8760;52.248;20.952;2024-02-21T05:15:57;5.50;99.90
17284;DHT22;8760;52.248;20.952;2024-02-21T05:18:26;5.40;99.90
17284;DHT22;8760;52.248;20.952;2024-02-21T05:20:53;5.40;99.90
17284;DHT22;8760;52.248;20.952;2024-02-21T05:23:20;5.40;99.90
17284;DHT22;8760;52.248;20.952;2024-02-21T05:25:47;5.30;99.90
17284;DHT22;8760;52.248;20.952;2024-02-21T05:28:14;5.30;99.90
17284;DHT22;8760;52.248;20.952;2024-02-21T05:30:41;5.30;99.90
17284;DHT22;8760;52.248;20.952;2024-02-21T05:33:10;5.30;99.90
17284;DHT22;8760;52.248;20.952;2024-02-21T05:35:37;5.30;99.90
17284;DHT22;8760;52.248;20.952;2024-02-21T05:38:03;5.20;99.90
17284;DHT22;8760;52.248;20.952;2024-02-21T05:40:36;5.30;99.90
17284;DHT22;8760;52.248;20.952;2024-02-21T05:43:03;5.30;99.90
17284;DHT22;8760;52.248;20.952;2024-02-21T05:45:30;5.40;99.90
17284;DHT22;8760;52.248;20.952;2024-02-21T05:47:57;5.40;99.90
17284;DHT22;8760;52.248;20.952;2024-02-21T05:50:26;5.40;99.90
17284;DHT22;8760;52.248;20.952;2024-02-21T05:52:54;5.50;99.90
17284;DHT22;8760;52.248;20.952;2024-02-21T05:55:22;5.50;99.90
17284;DHT22;8760;52.248;20.952;2024-02-21T05:57:49;5.50;99.90
17284;DHT22;8760;52.248;20.952;2024-02-21T06:00:16;5.60;99.90
17284;DHT22;8760;52.248;20.952;2024-02-21T06:02:43;5.50;99.90
17284;DHT22;8760;52.248;20.952;2024-02-21T06:05:10;5.60;99.90
17284;DHT22;8760;52.248;20.952;2024-02-21T06:07:38;5.60;99.90
17284;DHT22;8760;52.248;20.952;2024-02-21T06:10:07;5.60;99.90
17284;DHT22;8760;52.248;20.952;2024-02-21T06:12:34;5.70;99.90
17284;DHT22;8760;52.248;20.952;2024-02-21T06:15:01;5.70;99.90
17284;DHT22;8760;52.248;20.952;2024-02-21T06:17:28;5.70;99.90
17284;DHT22;8760;52.248;20.952;2024-02-21T06:19:55;5.70;99.90
17284;DHT22;8760;52.248;20.952;2024-02-21T06:22:22;5.80;99.90
17284;DHT22;8760;52.248;20.952;2024-02-21T06:24:50;5.80;99.90
17284;DHT22;8760;52.248;20.952;2024-02-21T06:27:17;5.80;99.90
17284;DHT22;8760;52.248;20.952;2024-02-21T06:29:44;5.90;99.90
17284;DHT22;8760;52.248;20.952;2024-02-21T06:32:11;6.00;99.90
17284;DHT22;8760;52.248;20.952;2024-02-21T06:34:38;6.00;99.90
17284;DHT22;8760;52.248;20.952;2024-02-21T06:37:05;6.10;99.90
17284;DHT22;8760;52.248;20.952;2024-02-21T06:39:31;6.00;99.90
17284;DHT22;8760;52.248;20.952;2024-02-21T06:42:00;5.90;99.90
17284;DHT22;8760;52.248;20.952;2024-02-21T06:44:26;5.90;99.90
17284;DHT22;8760;52.248;20.952;2024-02-21T06:46:54;6.00;99.90
17284;DHT22;8760;52.248;20.952;2024-02-21T06:49:21;6.00;99.90
17284;DHT22;8760;52.248;20.952;2024-02-21T06:51:48;5.90;99.90
17284;DHT22;8760;52.248;20.952;2024-02-21T06:54:14;5.90;99.90
17284;DHT22;8760;52.248;20.952;2024-02-21T06:56:41;5.90;99.90
17284;DHT22;8760;52.248;20.952;2024-02-21T06:59:09;5.80;99.90
17284;DHT22;8760;52.248;20.952;2024-02-21T07:01:36;5.90;99.90
17284;DHT22;8760;52.248;20.952;2024-02-21T07:04:03;5.80;99.90
17284;DHT22;8760;52.248;20.952;2024-02-21T07:06:30;5.90;99.90
17284;DHT22;8760;52.248;20.952;2024-02-21T07:08:57;5.90;99.90
17284;DHT22;8760;52.248;20.952;2024-02-21T07:11:24;5.90;99.90
17284;DHT22;8760;52.248;20.952;2024-02-21T07:13:52;6.00;99.90
17284;DHT22;8760;52.248;20.952;2024-02-21T07:16:21;6.00;99.90
17284;DHT22;8760;52.248;20.952;2024-02-21T07:18:48;6.00;99.90
17284;DHT22;8760;52.248;20.952;2024-02-21T07:21:14;6.00;99.90
17284;DHT22;8760;52.248;20.952;2024-02-21T07:23:41;5.90;99.90
17284;DHT22;8760;52.248;20.952;2024-02-21T07:26:09;6.10;99.90
17284;DHT22;8760;52.248;20.952;2024-02-21T07:28:36;6.10;99.90
17284;DHT22;8760;52.248;20.952;2024-02-21T07:31:03;6.10;99.90
17284;DHT22;8760;52.248;20.952;2024-02-21T07:33:31;6.20;99.90
17284;DHT22;8760;52.248;20.952;2024-02-21T07:35:58;6.30;99.90
17284;DHT22;8760;52.248;20.952;2024-02-21T07:38:25;6.20;99.90
17284;DHT22;8760;52.248;20.952;2024-02-21T07:40:52;6.20;99.90
17284;DHT22;8760;52.248;20.952;2024-02-21T07:43:19;6.20;99.90
17284;DHT22;8760;52.248;20.952;2024-02-21T07:45:47;6.30;99.90
17284;DHT22;8760;52.248;20.952;2024-02-21T07:48:14;6.20;99.90
17284;DHT22;8760;52.248;20.952;2024-02-21T07:50:43;6.40;99.90
17284;DHT22;8760;52.248;20.952;2024-02-21T07:53:09;6.50;99.90
17284;DHT22;8760;52.248;20.952;2024-02-21T07:55:36;6.60;99.90
17284;DHT22;8760;52.248;20.952;2024-02-21T07:58:03;6.80;99.90
17284;DHT22;8760;52.248;20.952;2024-02-21T08:00:30;6.90;99.90
17284;DHT22;8760;52.248;20.952;2024-02-21T08:02:57;6.80;99.90
17284;DHT22;8760;52.248;20.952;2024-02-21T08:05:24;7.00;99.90
17284;DHT22;8760;52.248;20.952;2024-02-21T08:07:52;7.10;99.90
17284;DHT22;8760;52.248;20.952;2024-02-21T08:10:19;7.20;99.90
17284;DHT22;8760;52.248;20.952;2024-02-21T08:12:46;7.20;99.90
17284;DHT22;8760;52.248;20.952;2024-02-21T08:15:13;7.30;99.90
17284;DHT22;8760;52.248;20.952;2024-02-21T08:17:41;7.50;99.90
17284;DHT22;8760;52.248;20.952;2024-02-21T08:20:09;7.50;99.90
17284;DHT22;8760;52.248;20.952;2024-02-21T08:22:37;7.50;99.90
17284;DHT22;8760;52.248;20.952;2024-02-21T08:25:06;7.40;99.90
17284;DHT22;8760;52.248;20.952;2024-02-21T08:27:34;7.40;99.90
17284;DHT22;8760;52.248;20.952;2024-02-21T08:30:01;7.50;99.90
17284;DHT22;8760;52.248;20.952;2024-02-21T08:32:29;7.40;99.90
17284;DHT22;8760;52.248;20.952;2024-02-21T08:34:55;7.30;99.90
17284;DHT22;8760;52.248;20.952;2024-02-21T08:37:22;7.30;99.90
17284;DHT22;8760;52.248;20.952;2024-02-21T08:39:49;7.30;99.90
17284;DHT22;8760;52.248;20.952;2024-02-21T08:42:17;7.30;99.90
17284;DHT22;8760;52.248;20.952;2024-02-21T08:44:44;7.20;99.90
17284;DHT22;8760;52.248;20.952;2024-02-21T08:47:11;7.20;99.90
17284;DHT22;8760;52.248;20.952;2024-02-21T08:49:38;7.30;99.90
17284;DHT22;8760;52.248;20.952;2024-02-21T08:52:05;7.50;99.90
17284;DHT22;8760;52.248;20.952;2024-02-21T08:54:32;7.70;99.90
17284;DHT22;8760;52.248;20.952;2024-02-21T08:56:59;7.80;99.90
17284;DHT22;8760;52.248;20.952;2024-02-21T08:59:28;7.80;99.90
17284;DHT22;8760;52.248;20.952;2024-02-21T09:01:54;7.90;99.90
17284;DHT22;8760;52.248;20.952;2024-02-21T09:04:21;7.80;99.90
17284;DHT22;8760;52.248;20.952;2024-02-21T09:06:48;7.80;99.90
17284;DHT22;8760;52.248;20.952;2024-02-21T09:09:15;7.80;99.90
17284;DHT22;8760;52.248;20.952;2024-02-21T09:11:42;7.90;99.90
17284;DHT22;8760;52.248;20.952;2024-02-21T09:14:09;7.90;99.90
17284;DHT22;8760;52.248;20.952;2024-02-21T09:16:37;7.90;99.90
17284;DHT22;8760;52.248;20.952;2024-02-21T09:19:05;7.90;99.90
17284;DHT22;8760;52.248;20.952;2024-02-21T09:21:32;7.80;99.90
17284;DHT22;8760;52.248;20.952;2024-02-21T09:23:59;7.80;99.90
17284;DHT22;8760;52.248;20.952;2024-02-21T09:26:26;7.70;99.90
17284;DHT22;8760;52.248;20.952;2024-02-21T09:28:53;7.60;99.90
17284;DHT22;8760;52.248;20.952;2024-02-21T09:31:20;7.50;99.90
17284;DHT22;8760;52.248;20.952;2024-02-21T09:33:48;7.50;99.90
17284;DHT22;8760;52.248;20.952;2024-02-21T09:36:15;7.50;99.90
17284;DHT22;8760;52.248;20.952;2024-02-21T09:38:42;7.60;99.90
17284;DHT22;8760;52.248;20.952;2024-02-21T09:41:15;7.60;99.90
17284;DHT22;8760;52.248;20.952;2024-02-21T09:43:43;7.60;99.90
17284;DHT22;8760;52.248;20.952;2024-02-21T09:46:15;7.60;99.90
17284;DHT22;8760;52.248;20.952;2024-02-21T09:48:58;7.80;99.90
17284;DHT22;8760;52.248;20.952;2024-02-21T09:51:29;7.70;99.90
17284;DHT22;8760;52.248;20.952;2024-02-21T09:53:57;7.70;99.90
17284;DHT22;8760;52.248;20.952;2024-02-21T09:56:25;7.80;99.90
17284;DHT22;8760;52.248;20.952;2024-02-21T09:58:52;7.80;99.90
17284;DHT22;8760;52.248;20.952;2024-02-21T10:01:19;7.80;99.90
17284;DHT22;8760;52.248;20.952;2024-02-21T10:03:46;7.80;99.90
17284;DHT22;8760;52.248;20.952;2024-02-21T10:06:14;7.90;99.90
17284;DHT22;8760;52.248;20.952;2024-02-21T10:08:41;7.90;99.90
17284;DHT22;8760;52.248;20.952;2024-02-21T10:11:08;7.90;99.90
17284;DHT22;8760;52.248;20.952;2024-02-21T10:13:35;7.90;99.90
17284;DHT22;8760;52.248;20.952;2024-02-21T10:16:04;8.00;99.90
17284;DHT22;8760;52.248;20.952;2024-02-21T10:18:32;8.10;99.90
17284;DHT22;8760;52.248;20.952;2024-02-21T10:21:05;8.10;99.90
17284;DHT22;8760;52.248;20.952;2024-02-21T10:23:48;8.10;99.90
17284;DHT22;8760;52.248;20.952;2024-02-21T10:26:16;8.30;99.90
17284;DHT22;8760;52.248;20.952;2024-02-21T10:28:44;8.40;99.90
17284;DHT22;8760;52.248;20.952;2024-02-21T10:31:22;8.30;99.90
17284;DHT22;8760;52.248;20.952;2024-02-21T10:33:54;8.30;99.90
17284;DHT22;8760;52.248;20.952;2024-02-21T10:36:21;8.20;99.90
17284;DHT22;8760;52.248;20.952;2024-02-21T10:38:49;8.30;99.90
17284;DHT22;8760;52.248;20.952;2024-02-21T10:41:19;8.30;99.90
17284;DHT22;8760;52.248;20.952;2024-02-21T10:43:49;8.30;99.90
17284;DHT22;8760;52.248;20.952;2024-02-21T10:46:18;8.40;99.90
17284;DHT22;8760;52.248;20.952;2024-02-21T10:48:46;8.30;99.90
17284;DHT22;8760;52.248;20.952;2024-02-21T10:51:17;8.40;99.90
17284;DHT22;8760;52.248;20.952;2024-02-21T10:53:57;8.50;99.90
17284;DHT22;8760;52.248;20.952;2024-02-21T10:56:30;8.60;99.90
17284;DHT22;8760;52.248;20.952;2024-02-21T10:59:01;8.50;99.90
17284;DHT22;8760;52.248;20.952;2024-02-21T11:01:28;8.60;99.90
17284;DHT22;8760;52.248;20.952;2024-02-21T11:03:59;8.60;99.90
17284;DHT22;8760;52.248;20.952;2024-02-21T11:06:28;8.70;99.90
17284;DHT22;8760;52.248;20.952;2024-02-21T11:09:04;8.50;99.90
17284;DHT22;8760;52.248;20.952;2024-02-21T11:11:33;8.50;99.90
17284;DHT22;8760;52.248;20.952;2024-02-21T11:14:05;8.40;99.90
17284;DHT22;8760;52.248;20.952;2024-02-21T11:16:35;8.40;99.90
17284;DHT22;8760;52.248;20.952;2024-02-21T11:19:07;8.50;99.90
17284;DHT22;8760;52.248;20.952;2024-02-21T11:21:35;8.50;99.90
17284;DHT22;8760;52.248;20.952;2024-02-21T11:24:04;8.50;97.10
17284;DHT22;8760;52.248;20.952;2024-02-21T11:26:31;8.60;1.00
17284;DHT22;8760;52.248;20.952;2024-02-21T11:28:59;8.50;1.00
17284;DHT22;8760;52.248;20.952;2024-02-21T11:31:26;8.20;99.90
17284;DHT22;8760;52.248;20.952;2024-02-21T11:33:54;8.20;1.00
17284;DHT22;8760;52.248;20.952;2024-02-21T11:36:25;8.20;1.00
17284;DHT22;8760;52.248;20.952;2024-02-21T11:38:53;8.20;1.00
17284;DHT22;8760;52.248;20.952;2024-02-21T11:41:21;8.10;1.00
17284;DHT22;8760;52.248;20.952;2024-02-21T11:43:49;8.10;1.00
17284;DHT22;8760;52.248;20.952;2024-02-21T11:46:17;8.00;1.00
17284;DHT22;8760;52.248;20.952;2024-02-21T11:48:45;7.90;89.50
17284;DHT22;8760;52.248;20.952;2024-02-21T11:51:21;7.90;99.90
17284;DHT22;8760;52.248;20.952;2024-02-21T11:53:50;7.70;99.90
17284;DHT22;8760;52.248;20.952;2024-02-21T11:56:18;7.80;99.90
17284;DHT22;8760;52.248;20.952;2024-02-21T11:58:46;7.80;99.90
17284;DHT22;8760;52.248;20.952;2024-02-21T12:01:14;7.70;99.90
17284;DHT22;8760;52.248;20.952;2024-02-21T12:03:42;7.80;99.90
17284;DHT22;8760;52.248;20.952;2024-02-21T12:06:16;7.80;99.90
17284;DHT22;8760;52.248;20.952;2024-02-21T12:08:46;7.80;99.90
17284;DHT22;8760;52.248;20.952;2024-02-21T12:11:19;7.80;99.90
17284;DHT22;8760;52.248;20.952;2024-02-21T12:13:57;7.80;99.90
17284;DHT22;8760;52.248;20.952;2024-02-21T12:16:26;7.80;99.90
17284;DHT22;8760;52.248;20.952;2024-02-21T12:18:53;7.70;99.90
17284;DHT22;8760;52.248;20.952;2024-02-21T12:21:23;7.70;99.90
17284;DHT22;8760;52.248;20.952;2024-02-21T12:23:50;7.70;99.90
17284;DHT22;8760;52.248;20.952;2024-02-21T12:26:17;7.60;99.90
17284;DHT22;8760;52.248;20.952;2024-02-21T12:28:44;7.50;99.90
17284;DHT22;8760;52.248;20.952;2024-02-21T12:31:13;7.60;99.90
17284;DHT22;8760;52.248;20.952;2024-02-21T12:33:41;7.50;99.90
17284;DHT22;8760;52.248;20.952;2024-02-21T12:36:08;7.50;99.90
17284;DHT22;8760;52.248;20.952;2024-02-21T12:38:35;7.50;99.90
17284;DHT22;8760;52.248;20.952;2024-02-21T12:41:03;7.50;99.90
17284;DHT22;8760;52.248;20.952;2024-02-21T12:43:30;7.50;99.90
17284;DHT22;8760;52.248;20.952;2024-02-21T12:45:57;7.50;99.90
17284;DHT22;8760;52.248;20.952;2024-02-21T12:48:25;7.40;99.90
17284;DHT22;8760;52.248;20.952;2024-02-21T12:50:52;7.50;99.90
17284;DHT22;8760;52.248;20.952;2024-02-21T12:53:19;7.60;99.90
17284;DHT22;8760;52.248;20.952;2024-02-21T12:55:48;7.50;99.90
17284;DHT22;8760;52.248;20.952;2024-02-21T12:58:15;7.50;99.90
17284;DHT22;8760;52.248;20.952;2024-02-21T13:00:42;7.50;99.90
17284;DHT22;8760;52.248;20.952;2024-02-21T13:03:10;7.50;99.90
17284;DHT22;8760;52.248;20.952;2024-02-21T13:05:38;7.50;99.90
17284;DHT22;8760;52.248;20.952;2024-02-21T13:08:06;7.50;99.90
17284;DHT22;8760;52.248;20.952;2024-02-21T13:10:33;7.60;99.90
17284;DHT22;8760;52.248;20.952;2024-02-21T13:13:00;7.60;99.90
17284;DHT22;8760;52.248;20.952;2024-02-21T13:15:27;7.60;99.90
17284;DHT22;8760;52.248;20.952;2024-02-21T13:17:55;7.60;99.90
17284;DHT22;8760;52.248;20.952;2024-02-21T13:20:22;7.60;99.90
17284;DHT22;8760;52.248;20.952;2024-02-21T13:22:51;7.70;99.90
17284;DHT22;8760;52.248;20.952;2024-02-21T13:25:18;7.60;99.90
17284;DHT22;8760;52.248;20.952;2024-02-21T13:27:46;7.50;99.90
17284;DHT22;8760;52.248;20.952;2024-02-21T13:30:14;7.50;99.90
17284;DHT22;8760;52.248;20.952;2024-02-21T13:32:43;7.50;99.90
17284;DHT22;8760;52.248;20.952;2024-02-21T13:35:11;7.50;99.90
17284;DHT22;8760;52.248;20.952;2024-02-21T13:37:39;7.50;99.90
17284;DHT22;8760;52.248;20.952;2024-02-21T13:40:08;7.50;99.90
17284;DHT22;8760;52.248;20.952;2024-02-21T13:42:35;7.50;99.90
17284;DHT22;8760;52.248;20.952;2024-02-21T13:45:03;7.50;99.90
17284;DHT22;8760;52.248;20.952;2024-02-21T13:47:31;7.50;99.90
17284;DHT22;8760;52.248;20.952;2024-02-21T13:49:58;7.50;99.90
17284;DHT22;8760;52.248;20.952;2024-02-21T13:52:24;7.50;99.90
17284;DHT22;8760;52.248;20.952;2024-02-21T13:54:52;7.50;99.90
17284;DHT22;8760;52.248;20.952;2024-02-21T13:57:20;7.70;99.90
17284;DHT22;8760;52.248;20.952;2024-02-21T13:59:48;7.60;99.90
17284;DHT22;8760;52.248;20.952;2024-02-21T14:02:15;7.60;99.90
17284;DHT22;8760;52.248;20.952;2024-02-21T14:04:41;7.60;99.90
17284;DHT22;8760;52.248;20.952;2024-02-21T14:07:09;7.60;99.90
17284;DHT22;8760;52.248;20.952;2024-02-21T14:09:35;7.70;99.90
17284;DHT22;8760;52.248;20.952;2024-02-21T14:12:03;7.70;99.90
17284;DHT22;8760;52.248;20.952;2024-02-21T14:14:35;7.70;99.90
17284;DHT22;8760;52.248;20.952;2024-02-21T14:17:02;7.70;99.90
17284;DHT22;8760;52.248;20.952;2024-02-21T14:19:29;7.60;99.90
17284;DHT22;8760;52.248;20.952;2024-02-21T14:21:56;7.70;99.90
17284;DHT22;8760;52.248;20.952;2024-02-21T14:24:23;7.60;99.90
17284;DHT22;8760;52.248;20.952;2024-02-21T14:26:50;7.70;99.90
17284;DHT22;8760;52.248;20.952;2024-02-21T14:29:17;7.70;99.90
17284;DHT22;8760;52.248;20.952;2024-02-21T14:31:45;7.70;99.90
17284;DHT22;8760;52.248;20.952;2024-02-21T14:34:12;7.60;99.90
17284;DHT22;8760;52.248;20.952;2024-02-21T14:36:39;7.60;99.90
17284;DHT22;8760;52.248;20.952;2024-02-21T14:39:07;7.50;99.90
17284;DHT22;8760;52.248;20.952;2024-02-21T14:41:34;7.60;99.90
17284;DHT22;8760;52.248;20.952;2024-02-21T14:44:01;7.50;99.90
17284;DHT22;8760;52.248;20.952;2024-02-21T14:46:29;7.60;99.90
17284;DHT22;8760;52.248;20.952;2024-02-21T14:48:57;7.60;99.90
17284;DHT22;8760;52.248;20.952;2024-02-21T14:51:24;7.60;99.90
17284;DHT22;8760;52.248;20.952;2024-02-21T14:53:51;7.60;99.90
17284;DHT22;8760;52.248;20.952;2024-02-21T14:56:18;7.60;99.90
17284;DHT22;8760;52.248;20.952;2024-02-21T14:58:45;7.50;99.90
17284;DHT22;8760;52.248;20.952;2024-02-21T15:01:12;7.50;99.90
17284;DHT22;8760;52.248;20.952;2024-02-21T15:03:39;7.40;99.90
17284;DHT22;8760;52.248;20.952;2024-02-21T15:06:08;7.40;99.90
17284;DHT22;8760;52.248;20.952;2024-02-21T15:08:35;7.40;99.90
17284;DHT22;8760;52.248;20.952;2024-02-21T15:11:02;7.40;99.90
17284;DHT22;8760;52.248;20.952;2024-02-21T15:13:29;7.40;99.90
17284;DHT22;8760;52.248;20.952;2024-02-21T15:15:56;7.40;99.90
17284;DHT22;8760;52.248;20.952;2024-02-21T15:18:23;7.30;99.90
17284;DHT22;8760;52.248;20.952;2024-02-21T15:20:50;7.40;99.90
17284;DHT22;8760;52.248;20.952;2024-02-21T15:23:18;7.40;99.90
17284;DHT22;8760;52.248;20.952;2024-02-21T15:25:46;7.40;99.90
17284;DHT22;8760;52.248;20.952;2024-02-21T15:28:12;7.40;99.90
17284;DHT22;8760;52.248;20.952;2024-02-21T15:30:39;7.40;99.90
17284;DHT22;8760;52.248;20.952;2024-02-21T15:33:06;7.40;99.90
17284;DHT22;8760;52.248;20.952;2024-02-21T15:35:33;7.30;99.90
17284;DHT22;8760;52.248;20.952;2024-02-21T15:38:00;7.40;99.90
17284;DHT22;8760;52.248;20.952;2024-02-21T15:40:29;7.40;99.90
17284;DHT22;8760;52.248;20.952;2024-02-21T15:43:01;7.30;99.90
17284;DHT22;8760;52.248;20.952;2024-02-21T15:45:28;7.30;99.90
17284;DHT22;8760;52.248;20.952;2024-02-21T15:47:55;7.40;99.90
17284;DHT22;8760;52.248;20.952;2024-02-21T15:50:21;7.40;99.90